Time;durP1;ratioP1;P1;durP2;ratioP2;P2;SDS_P1;SDS_P2;PMS_P1;PMS_P2;Temp;Humidity;BMP_temperature;BMP_pressure;BME280_temperature;BME280_humidity;BME280_pressure;Samples;Min_cycle;Max_cycle;Signal;HPM_P1;HPM_P2
2021/05/07 00:00:41;;;;;;;2.00;1.23;;;8.50;99.90;;;;;;5003641;28;20179;-66
2021/05/07 00:03:07;;;;;;;1.00;1.00;;;8.50;99.90;;;;;;4995506;28;20191;-66
2021/05/07 00:05:32;;;;;;;1.53;1.43;;;8.50;99.90;;;;;;5011839;28;20438;-66
2021/05/07 00:07:58;;;;;;;0.80;0.80;;;8.50;99.90;;;;;;5009535;28;20197;-66
2021/05/07 00:10:26;;;;;;;1.10;1.10;;;8.50;99.90;;;;;;5010413;28;20178;-66
2021/05/07 00:12:52;;;;;;;1.47;1.37;;;8.50;99.90;;;;;;5010235;28;20167;-66
2021/05/07 00:15:18;;;;;;;1.13;1.03;;;8.50;99.90;;;;;;5010846;28;20453;-66
2021/05/07 00:17:44;;;;;;;1.63;1.03;;;8.60;99.90;;;;;;5006062;28;20872;-66
2021/05/07 00:20:11;;;;;;;1.30;1.20;;;8.50;99.90;;;;;;5009503;28;20245;-66
2021/05/07 00:22:39;;;;;;;2.70;1.70;;;8.50;99.90;;;;;;4999664;28;20645;-66
2021/05/07 00:25:05;;;;;;;1.93;1.00;;;8.50;99.90;;;;;;5011287;28;20520;-66
2021/05/07 00:27:30;;;;;;;1.33;1.23;;;8.50;99.90;;;;;;5006742;28;20451;-66
2021/05/07 00:29:56;;;;;;;0.90;0.90;;;8.50;99.90;;;;;;4991695;28;20437;-66
2021/05/07 00:32:21;;;;;;;1.30;1.20;;;8.50;99.90;;;;;;5003932;28;20191;-66
2021/05/07 00:34:47;;;;;;;1.77;1.30;;;8.40;99.90;;;;;;4997649;28;20247;-66
2021/05/07 00:37:12;;;;;;;1.50;1.40;;;8.50;99.90;;;;;;5008473;28;20261;-66
2021/05/07 00:39:38;;;;;;;1.30;1.10;;;8.50;99.90;;;;;;4991402;28;20198;-66
2021/05/07 00:42:05;;;;;;;1.47;1.37;;;8.50;99.90;;;;;;5008581;28;20640;-66
2021/05/07 00:44:32;;;;;;;1.40;1.30;;;8.50;99.90;;;;;;4996029;28;20663;-66
2021/05/07 00:47:04;;;;;;;1.20;1.10;;;8.40;99.90;;;;;;5006532;28;20600;-66
2021/05/07 00:49:33;;;;;;;1.13;1.03;;;8.40;99.90;;;;;;5008945;28;20461;-66
2021/05/07 00:52:00;;;;;;;1.10;1.00;;;8.50;99.90;;;;;;4997555;28;20441;-66
2021/05/07 00:54:26;;;;;;;1.20;1.10;;;8.50;99.90;;;;;;4998507;28;20477;-66
2021/05/07 00:56:52;;;;;;;1.00;1.00;;;8.50;99.90;;;;;;5005582;28;20458;-66
2021/05/07 00:59:17;;;;;;;1.90;1.17;;;8.60;99.90;;;;;;5009517;28;20954;-66
2021/05/07 01:01:43;;;;;;;1.30;1.20;;;8.60;99.90;;;;;;5006479;28;20175;-66
2021/05/07 01:04:09;;;;;;;1.20;1.10;;;8.60;99.90;;;;;;5001186;28;20179;-66
2021/05/07 01:06:34;;;;;;;0.80;0.80;;;8.70;99.90;;;;;;4994739;28;20792;-66
2021/05/07 01:09:00;;;;;;;1.53;1.00;;;8.70;99.90;;;;;;4999754;28;20183;-66
2021/05/07 01:11:26;;;;;;;1.10;1.00;;;8.70;99.90;;;;;;5003362;28;20202;-66
2021/05/07 01:13:52;;;;;;;1.00;0.90;;;8.70;99.90;;;;;;5006686;28;20462;-66
2021/05/07 01:16:17;;;;;;;0.80;0.80;;;8.70;99.90;;;;;;5007936;28;20523;-66
2021/05/07 01:18:43;;;;;;;1.20;1.10;;;8.70;99.90;;;;;;5003900;28;20251;-66
2021/05/07 01:21:08;;;;;;;5.30;1.20;;;8.80;99.90;;;;;;4991790;28;20168;-66
2021/05/07 01:23:34;;;;;;;1.30;1.20;;;8.70;99.90;;;;;;4991285;28;20198;-66
2021/05/07 01:25:59;;;;;;;1.43;1.07;;;8.60;99.90;;;;;;4991431;28;20183;-66
2021/05/07 01:28:27;;;;;;;1.00;1.00;;;8.50;99.90;;;;;;5008493;28;20233;-66
2021/05/07 01:30:52;;;;;;;0.87;0.87;;;8.40;99.90;;;;;;5007264;28;20201;-66
2021/05/07 01:33:18;;;;;;;1.37;0.90;;;8.40;99.90;;;;;;5007393;28;20477;-66
2021/05/07 01:35:45;;;;;;;1.27;1.17;;;8.40;99.90;;;;;;5003001;28;20699;-66
2021/05/07 01:38:13;;;;;;;1.80;0.80;;;8.40;99.90;;;;;;5007968;28;20185;-66
2021/05/07 01:40:41;;;;;;;0.90;0.90;;;8.40;99.90;;;;;;4995874;28;20441;-66
2021/05/07 01:43:07;;;;;;;1.13;1.00;;;8.40;99.90;;;;;;4994925;28;20866;-66
2021/05/07 01:45:39;;;;;;;4.77;1.00;;;8.40;99.90;;;;;;5002570;28;20961;-66
2021/05/07 01:48:06;;;;;;;0.83;0.80;;;8.30;99.90;;;;;;4990614;28;528063;-66
2021/05/07 01:50:33;;;;;;;1.90;1.10;;;8.40;99.90;;;;;;5002779;28;20519;-66
2021/05/07 01:52:59;;;;;;;1.20;1.10;;;8.30;99.90;;;;;;5009062;28;20444;-66
2021/05/07 01:55:30;;;;;;;1.37;1.27;;;8.30;99.90;;;;;;5009071;28;20473;-66
2021/05/07 01:57:56;;;;;;;1.00;0.90;;;8.30;99.90;;;;;;5002222;28;20485;-67
2021/05/07 02:00:25;;;;;;;1.10;0.70;;;8.40;99.90;;;;;;4996872;28;20449;-66
2021/05/07 02:02:51;;;;;;;0.70;0.70;;;8.50;99.90;;;;;;4991007;28;20800;-66
2021/05/07 02:05:20;;;;;;;1.50;1.10;;;8.40;99.90;;;;;;5004225;28;20438;-66
2021/05/07 02:07:49;;;;;;;1.40;0.70;;;8.30;99.90;;;;;;5003413;28;20454;-66
2021/05/07 02:10:17;;;;;;;0.97;0.87;;;8.20;99.90;;;;;;4992104;28;20881;-66
2021/05/07 02:12:43;;;;;;;0.90;0.70;;;8.30;99.90;;;;;;4993761;28;21001;-66
2021/05/07 02:15:15;;;;;;;1.17;1.07;;;8.30;99.90;;;;;;4992637;28;20525;-66
2021/05/07 02:17:41;;;;;;;1.03;0.93;;;8.20;99.90;;;;;;4998768;28;20446;-66
2021/05/07 02:20:08;;;;;;;1.73;1.00;;;8.10;99.90;;;;;;5013499;28;20439;-66
2021/05/07 02:22:33;;;;;;;0.80;0.80;;;8.10;99.90;;;;;;5000981;28;20998;-66
2021/05/07 02:24:59;;;;;;;0.87;0.87;;;8.10;99.90;;;;;;4996658;28;20442;-66
2021/05/07 02:27:25;;;;;;;1.20;1.10;;;8.10;99.90;;;;;;5013731;28;20206;-66
2021/05/07 02:29:50;;;;;;;1.33;0.87;;;8.10;99.90;;;;;;5006155;28;20274;-66
2021/05/07 02:32:16;;;;;;;0.80;0.80;;;8.00;99.90;;;;;;5001112;28;20175;-66
2021/05/07 02:34:41;;;;;;;1.00;0.90;;;8.00;99.90;;;;;;4999847;28;20808;-66
2021/05/07 02:37:07;;;;;;;2.00;0.80;;;8.10;99.90;;;;;;5009802;28;20202;-66
2021/05/07 02:39:32;;;;;;;1.53;0.93;;;8.10;99.90;;;;;;4994675;28;20192;-66
2021/05/07 02:41:58;;;;;;;1.83;1.10;;;8.10;99.90;;;;;;5002408;28;20275;-66
2021/05/07 02:44:23;;;;;;;1.00;0.80;;;8.10;99.90;;;;;;5002133;28;20191;-66
2021/05/07 02:46:49;;;;;;;2.03;1.93;;;8.20;99.90;;;;;;5008689;28;20665;-66
2021/05/07 02:49:14;;;;;;;0.70;0.70;;;8.20;99.90;;;;;;5007550;28;20250;-66
2021/05/07 02:51:40;;;;;;;1.10;1.10;;;8.20;99.90;;;;;;5004603;28;20696;-66
2021/05/07 02:54:05;;;;;;;1.67;1.20;;;8.20;99.90;;;;;;5003842;28;20285;-66
2021/05/07 02:56:31;;;;;;;1.83;1.30;;;8.30;99.90;;;;;;5003175;28;20603;-66
2021/05/07 02:58:56;;;;;;;2.73;1.30;;;8.20;99.90;;;;;;4996866;28;20267;-66
2021/05/07 03:01:23;;;;;;;1.10;1.00;;;8.30;99.90;;;;;;4997640;28;20568;-66
2021/05/07 03:03:49;;;;;;;3.17;0.97;;;8.30;99.90;;;;;;5000636;28;20862;-66
2021/05/07 03:06:14;;;;;;;1.30;1.20;;;8.20;99.90;;;;;;5008255;28;21042;-66
2021/05/07 03:08:40;;;;;;;1.53;1.43;;;8.20;99.90;;;;;;5013071;28;20529;-66
2021/05/07 03:11:06;;;;;;;1.87;1.77;;;8.30;99.90;;;;;;4997748;28;20188;-65
2021/05/07 03:13:32;;;;;;;1.90;1.70;;;8.20;99.90;;;;;;5000461;28;20231;-66
2021/05/07 03:15:57;;;;;;;1.70;1.60;;;8.20;99.90;;;;;;5001432;28;20182;-66
2021/05/07 03:18:23;;;;;;;3.60;3.30;;;8.10;99.90;;;;;;5013256;28;20799;-66
2021/05/07 03:20:50;;;;;;;2.03;1.90;;;8.20;99.90;;;;;;4995221;28;20222;-66
2021/05/07 03:23:17;;;;;;;2.70;2.20;;;8.20;99.90;;;;;;5011023;28;20661;-66
2021/05/07 03:25:43;;;;;;;2.50;1.60;;;8.20;99.90;;;;;;5004486;28;20430;-66
2021/05/07 03:28:09;;;;;;;1.47;1.37;;;8.20;99.90;;;;;;4996081;28;20431;-66
2021/05/07 03:30:35;;;;;;;2.80;1.60;;;8.20;99.90;;;;;;5011996;28;20437;-66
2021/05/07 03:33:03;;;;;;;1.53;1.43;;;8.20;99.90;;;;;;5003886;28;20540;-66
2021/05/07 03:35:29;;;;;;;1.33;1.23;;;8.10;99.90;;;;;;5004926;28;20527;-66
2021/05/07 03:37:54;;;;;;;2.20;1.57;;;8.00;99.90;;;;;;5011544;28;20486;-66
2021/05/07 03:40:20;;;;;;;1.90;1.80;;;7.90;99.90;;;;;;4997798;28;20507;-66
2021/05/07 03:42:46;;;;;;;2.80;1.73;;;7.90;99.90;;;;;;5012181;28;20756;-66
2021/05/07 03:45:13;;;;;;;4.60;2.10;;;7.90;99.90;;;;;;5001527;28;20521;-66
2021/05/07 03:47:40;;;;;;;1.53;1.43;;;7.80;99.90;;;;;;5006296;28;20211;-66
2021/05/07 03:50:07;;;;;;;1.90;1.80;;;7.60;99.90;;;;;;5009881;28;20438;-66
2021/05/07 03:52:33;;;;;;;2.30;2.10;;;7.60;99.90;;;;;;5007507;28;20431;-66
2021/05/07 03:54:58;;;;;;;1.90;1.80;;;7.50;99.90;;;;;;5018927;28;20465;-66
2021/05/07 03:57:25;;;;;;;2.30;1.77;;;7.40;99.90;;;;;;5007149;28;20202;-66
2021/05/07 03:59:51;;;;;;;1.87;1.50;;;7.30;99.90;;;;;;5010564;28;20200;-66
2021/05/07 04:02:16;;;;;;;1.90;1.80;;;7.30;99.90;;;;;;4994999;28;20947;-66
2021/05/07 04:04:44;;;;;;;1.80;1.70;;;7.30;99.90;;;;;;5015057;28;20182;-66
2021/05/07 04:07:10;;;;;;;2.20;1.20;;;7.30;99.90;;;;;;5021155;28;20202;-66
2021/05/07 04:09:39;;;;;;;1.47;1.37;;;7.20;99.90;;;;;;5021722;28;20441;-66
2021/05/07 04:12:17;;;;;;;1.63;1.53;;;7.20;99.90;;;;;;5005337;28;20456;-66
2021/05/07 04:14:43;;;;;;;2.07;1.97;;;7.10;99.90;;;;;;5000904;28;20457;-66
2021/05/07 04:17:09;;;;;;;1.90;1.23;;;7.10;99.90;;;;;;5011651;28;20653;-66
2021/05/07 04:19:35;;;;;;;1.20;1.10;;;7.00;99.90;;;;;;5009131;28;20175;-66
2021/05/07 04:22:00;;;;;;;1.80;1.70;;;6.90;99.90;;;;;;5014154;28;20441;-66
2021/05/07 04:24:26;;;;;;;1.50;1.40;;;6.90;99.90;;;;;;5006852;28;20183;-66
2021/05/07 04:26:54;;;;;;;1.77;1.63;;;6.90;99.90;;;;;;5011164;28;20268;-66
2021/05/07 04:29:25;;;;;;;1.37;1.27;;;6.90;99.90;;;;;;5009171;28;20193;-66
2021/05/07 04:31:51;;;;;;;2.10;1.97;;;6.80;99.90;;;;;;5009516;28;20429;-66
2021/05/07 04:34:16;;;;;;;2.87;1.33;;;6.80;99.90;;;;;;5013024;28;20523;-66
2021/05/07 04:36:42;;;;;;;1.53;1.20;;;6.90;99.90;;;;;;5018678;28;20280;-66
2021/05/07 04:39:08;;;;;;;1.40;1.30;;;7.00;99.90;;;;;;5003034;28;20781;-66
2021/05/07 04:41:34;;;;;;;2.17;1.40;;;6.90;99.90;;;;;;5013904;28;20657;-66
2021/05/07 04:44:00;;;;;;;3.47;1.43;;;6.90;99.90;;;;;;5002991;28;20936;-66
2021/05/07 04:46:25;;;;;;;1.27;1.00;;;6.90;99.90;;;;;;5001096;28;20468;-67
2021/05/07 04:48:51;;;;;;;1.17;1.07;;;6.90;99.90;;;;;;5000693;28;20459;-67
2021/05/07 04:51:16;;;;;;;2.00;1.33;;;6.90;99.90;;;;;;4993377;28;20172;-67
2021/05/07 04:53:42;;;;;;;0.83;0.77;;;6.90;99.90;;;;;;5011383;28;20226;-67
2021/05/07 04:56:08;;;;;;;2.03;1.93;;;7.00;99.90;;;;;;4995072;28;20199;-67
2021/05/07 04:58:33;;;;;;;1.47;1.33;;;6.90;99.90;;;;;;5001222;28;20201;-67
2021/05/07 05:00:59;;;;;;;2.20;2.00;;;6.90;99.90;;;;;;5006627;28;20186;-67
2021/05/07 05:03:24;;;;;;;1.57;1.47;;;7.00;99.90;;;;;;4997665;28;20207;-67
2021/05/07 05:05:50;;;;;;;1.00;0.90;;;6.90;99.90;;;;;;5000249;28;20172;-67
2021/05/07 05:08:25;;;;;;;1.60;1.50;;;6.90;99.90;;;;;;4991648;28;20663;-67
2021/05/07 05:10:55;;;;;;;1.73;1.30;;;6.90;99.90;;;;;;5004906;28;20455;-67
2021/05/07 05:13:21;;;;;;;1.20;1.00;;;6.80;99.90;;;;;;5002681;28;20462;-67
2021/05/07 05:15:49;;;;;;;1.23;1.13;;;6.80;99.90;;;;;;4997546;28;20488;-67
2021/05/07 05:18:24;;;;;;;4.50;1.00;;;6.70;99.90;;;;;;4999260;28;20434;-67
2021/05/07 05:20:55;;;;;;;1.37;1.20;;;6.70;99.90;;;;;;4990804;28;20434;-67
2021/05/07 05:23:21;;;;;;;1.90;1.80;;;6.70;99.90;;;;;;5000479;28;20476;-67
2021/05/07 05:25:47;;;;;;;1.40;1.30;;;6.70;99.90;;;;;;5005988;28;20919;-67
2021/05/07 05:28:13;;;;;;;1.47;1.37;;;6.70;99.90;;;;;;4999238;28;20180;-66
2021/05/07 05:30:39;;;;;;;1.63;1.13;;;6.70;99.90;;;;;;5004449;28;20446;-66
2021/05/07 05:33:04;;;;;;;1.50;1.40;;;6.60;99.90;;;;;;4995314;28;20210;-67
2021/05/07 05:35:30;;;;;;;1.97;1.80;;;6.70;99.90;;;;;;4991175;28;20234;-67
2021/05/07 05:37:55;;;;;;;2.50;2.30;;;6.60;99.90;;;;;;4991400;28;20199;-66
2021/05/07 05:40:21;;;;;;;2.73;2.20;;;6.70;99.90;;;;;;5007488;28;20689;-67
2021/05/07 05:42:46;;;;;;;2.77;2.00;;;6.80;99.90;;;;;;5004734;28;20172;-67
2021/05/07 05:45:13;;;;;;;2.73;1.93;;;6.70;99.90;;;;;;5000298;28;20254;-67
2021/05/07 05:47:38;;;;;;;2.93;2.73;;;6.80;99.90;;;;;;5009422;28;20294;-65
2021/05/07 05:50:04;;;;;;;3.70;2.87;;;6.80;99.90;;;;;;5008360;28;20521;-65
2021/05/07 05:52:30;;;;;;;2.83;2.63;;;6.90;99.90;;;;;;4993772;28;20558;-65
2021/05/07 05:54:55;;;;;;;2.57;2.27;;;7.00;99.90;;;;;;5002638;28;20540;-65
2021/05/07 05:57:21;;;;;;;2.30;2.10;;;7.00;99.90;;;;;;5014267;28;20207;-65
2021/05/07 05:59:49;;;;;;;3.13;2.60;;;7.00;99.90;;;;;;4999350;28;20186;-65
2021/05/07 06:02:14;;;;;;;2.70;2.50;;;7.00;99.90;;;;;;4997285;28;20185;-65
2021/05/07 06:04:40;;;;;;;3.20;2.60;;;7.10;99.90;;;;;;5012964;28;20529;-65
2021/05/07 06:07:05;;;;;;;3.90;3.60;;;7.10;99.90;;;;;;5005021;28;20245;-65
2021/05/07 06:09:31;;;;;;;2.60;2.40;;;7.20;99.90;;;;;;5002896;28;20210;-67
2021/05/07 06:11:56;;;;;;;3.70;3.30;;;7.20;99.90;;;;;;4995171;28;20176;-66
2021/05/07 06:14:22;;;;;;;3.27;2.97;;;7.30;99.90;;;;;;5006765;28;20203;-67
2021/05/07 06:16:48;;;;;;;4.43;3.30;;;7.30;99.90;;;;;;4994562;28;20679;-67
2021/05/07 06:19:13;;;;;;;3.50;3.20;;;7.50;99.90;;;;;;5002951;28;20269;-67
2021/05/07 06:21:39;;;;;;;3.93;3.40;;;7.50;99.90;;;;;;5004236;28;20470;-67
2021/05/07 06:24:06;;;;;;;3.83;3.43;;;7.60;99.90;;;;;;5003524;28;20176;-67
2021/05/07 06:26:31;;;;;;;4.50;4.10;;;7.60;99.90;;;;;;5008178;28;20464;-67
2021/05/07 06:28:57;;;;;;;7.23;5.00;;;7.50;99.90;;;;;;4993007;28;20437;-67
2021/05/07 06:31:22;;;;;;;4.90;3.60;;;7.60;99.90;;;;;;4982766;28;20198;-67
2021/05/07 06:33:48;;;;;;;5.70;4.30;;;7.60;99.90;;;;;;5009486;28;20203;-67
2021/05/07 06:36:15;;;;;;;5.60;4.67;;;7.60;99.90;;;;;;5006614;28;20195;-67
2021/05/07 06:38:41;;;;;;;6.10;5.50;;;7.70;99.90;;;;;;4999255;28;20179;-66
2021/05/07 06:41:06;;;;;;;8.20;4.90;;;7.80;99.90;;;;;;5002175;28;20446;-66
2021/05/07 06:43:32;;;;;;;7.23;5.43;;;7.90;99.90;;;;;;5003474;28;20209;-66
2021/05/07 06:45:58;;;;;;;8.37;6.57;;;7.90;99.90;;;;;;5008644;28;20195;-66
2021/05/07 06:48:23;;;;;;;6.57;5.90;;;8.20;99.90;;;;;;5001659;28;20190;-66
2021/05/07 06:50:49;;;;;;;6.27;4.93;;;8.50;99.90;;;;;;5006893;28;20175;-66
2021/05/07 06:53:15;;;;;;;6.10;5.40;;;8.70;99.90;;;;;;5001509;28;20602;-66
2021/05/07 06:55:40;;;;;;;6.43;5.90;;;8.70;99.90;;;;;;4998203;28;20469;-66
2021/05/07 06:58:06;;;;;;;6.07;5.47;;;8.50;99.90;;;;;;5002853;28;20195;-65
2021/05/07 07:00:33;;;;;;;7.70;6.97;;;8.30;99.90;;;;;;5003892;28;20179;-67
2021/05/07 07:02:58;;;;;;;7.00;6.30;;;8.40;99.90;;;;;;5000854;28;20314;-67
2021/05/07 07:05:24;;;;;;;7.57;6.80;;;8.40;99.90;;;;;;5006486;28;20517;-67
2021/05/07 07:07:52;;;;;;;7.00;6.20;;;8.40;99.90;;;;;;5003798;28;20195;-66
2021/05/07 07:10:17;;;;;;;6.93;6.30;;;8.40;99.90;;;;;;4994798;28;20179;-66
2021/05/07 07:12:43;;;;;;;6.43;5.93;;;8.20;99.90;;;;;;5004318;28;20573;-66
2021/05/07 07:15:09;;;;;;;6.83;6.13;;;8.30;99.90;;;;;;4997352;28;20208;-66
2021/05/07 07:17:35;;;;;;;7.73;6.87;;;8.40;99.90;;;;;;5008593;28;20202;-67
2021/05/07 07:20:00;;;;;;;8.60;7.90;;;8.40;99.90;;;;;;4997593;28;20434;-67
2021/05/07 07:22:26;;;;;;;8.70;7.60;;;8.30;99.90;;;;;;5004395;28;20210;-66
2021/05/07 07:24:51;;;;;;;7.90;6.67;;;8.20;99.90;;;;;;5005620;28;20186;-65
2021/05/07 07:27:17;;;;;;;7.33;6.63;;;8.10;99.90;;;;;;5002724;28;20230;-66
2021/05/07 07:29:44;;;;;;;8.90;8.07;;;8.00;99.90;;;;;;5006492;28;20189;-66
2021/05/07 07:32:09;;;;;;;8.83;8.03;;;8.00;99.90;;;;;;4993740;28;20182;-65
2021/05/07 07:34:35;;;;;;;8.80;7.90;;;7.80;99.90;;;;;;5000907;28;21066;-66
2021/05/07 07:37:01;;;;;;;7.33;6.73;;;7.90;99.90;;;;;;4998510;28;20321;-66
2021/05/07 07:39:26;;;;;;;8.27;7.57;;;8.00;99.90;;;;;;5003924;28;20206;-66
2021/05/07 07:41:52;;;;;;;8.43;7.63;;;8.10;99.90;;;;;;4996315;28;20176;-64
2021/05/07 07:44:18;;;;;;;10.10;8.77;;;8.10;99.90;;;;;;5004934;28;20204;-66
2021/05/07 07:46:44;;;;;;;16.50;9.67;;;8.30;99.90;;;;;;5001808;28;20221;-67
2021/05/07 07:49:10;;;;;;;7.67;6.93;;;8.50;99.90;;;;;;4999094;28;20526;-66
2021/05/07 07:51:35;;;;;;;8.53;7.73;;;8.80;99.90;;;;;;5006236;28;20520;-65
2021/05/07 07:54:06;;;;;;;10.00;7.53;;;9.00;99.90;;;;;;4995335;28;20202;-66
2021/05/07 07:56:32;;;;;;;8.13;7.33;;;9.20;99.90;;;;;;5006201;28;20199;-66
2021/05/07 07:58:58;;;;;;;9.20;8.30;;;9.40;99.90;;;;;;5000701;28;20449;-66
2021/05/07 08:01:23;;;;;;;7.97;7.33;;;9.60;99.90;;;;;;4999802;28;20171;-67
2021/05/07 08:03:49;;;;;;;7.83;7.13;;;9.80;99.90;;;;;;5007075;28;20538;-67
2021/05/07 08:06:15;;;;;;;8.37;7.03;;;10.00;99.90;;;;;;4995315;28;20207;-67
2021/05/07 08:08:40;;;;;;;6.63;6.03;;;10.20;99.90;;;;;;5004513;28;20430;-66
2021/05/07 08:11:06;;;;;;;7.43;6.73;;;10.10;99.90;;;;;;5008303;28;20182;-66
2021/05/07 08:13:31;;;;;;;9.37;8.30;;;9.90;99.90;;;;;;5002727;28;20550;-67
2021/05/07 08:15:57;;;;;;;9.57;6.43;;;9.90;99.90;;;;;;4998621;28;20174;-66
2021/05/07 08:18:23;;;;;;;7.20;6.50;;;10.20;99.90;;;;;;4999278;28;20672;-66
2021/05/07 08:20:48;;;;;;;8.43;6.50;;;10.50;99.90;;;;;;4998385;28;20218;-68
2021/05/07 08:23:14;;;;;;;6.70;6.10;;;10.80;99.90;;;;;;4999273;28;20232;-67
2021/05/07 08:25:39;;;;;;;9.20;5.83;;;10.90;99.90;;;;;;4996407;28;20237;-65
2021/05/07 08:28:05;;;;;;;6.57;5.93;;;11.00;99.90;;;;;;4996297;28;20199;-65
2021/05/07 08:30:30;;;;;;;5.77;5.33;;;11.00;99.90;;;;;;5005798;28;20210;-66
2021/05/07 08:32:56;;;;;;;7.23;6.10;;;11.20;99.90;;;;;;5007832;28;20657;-66
2021/05/07 08:35:21;;;;;;;6.37;5.80;;;11.40;99.90;;;;;;5002730;28;20221;-66
2021/05/07 08:37:47;;;;;;;5.80;5.30;;;11.50;99.90;;;;;;5009501;28;20202;-66
2021/05/07 08:40:17;;;;;;;6.13;5.53;;;11.30;99.90;;;;;;5002013;28;20179;-67
2021/05/07 08:42:44;;;;;;;5.00;4.60;;;11.10;99.90;;;;;;4997899;28;20191;-67
2021/05/07 08:45:11;;;;;;;5.90;5.40;;;11.40;99.90;;;;;;5000162;28;20434;-66
2021/05/07 08:47:37;;;;;;;5.10;4.70;;;11.80;99.90;;;;;;5001134;28;20471;-66
2021/05/07 08:50:07;;;;;;;6.33;5.83;;;11.90;99.90;;;;;;5007490;28;20522;-67
2021/05/07 08:52:34;;;;;;;4.90;4.50;;;12.20;99.90;;;;;;4999070;28;21161;-66
2021/05/07 08:55:01;;;;;;;5.47;5.00;;;12.00;99.90;;;;;;5007689;28;20556;-67
2021/05/07 08:57:26;;;;;;;5.80;5.03;;;11.90;99.90;;;;;;4997309;28;20501;-66
2021/05/07 08:59:52;;;;;;;5.40;5.00;;;12.10;99.90;;;;;;4994975;28;20435;-66
2021/05/07 09:02:31;;;;;;;5.93;5.43;;;12.20;99.90;;;;;;5005594;28;20171;-66
2021/05/07 09:04:58;;;;;;;5.53;5.03;;;11.90;99.90;;;;;;4999689;28;20259;-66
2021/05/07 09:07:25;;;;;;;5.17;4.67;;;12.00;99.90;;;;;;5003326;28;20450;-66
2021/05/07 09:09:54;;;;;;;9.40;5.33;;;12.30;99.90;;;;;;5005029;28;20480;-67
2021/05/07 09:12:54;;;;;;;6.17;5.57;;;12.90;99.90;;;;;;4995013;28;20847;-67
2021/05/07 09:15:20;;;;;;;6.07;4.67;;;13.10;99.90;;;;;;4996095;28;20512;-67
2021/05/07 09:17:45;;;;;;;8.07;5.03;;;13.30;99.90;;;;;;4992009;28;20517;-67
2021/05/07 09:20:15;;;;;;;4.93;4.50;;;13.50;99.90;;;;;;4998047;28;20184;-66
2021/05/07 09:22:42;;;;;;;5.90;5.47;;;14.00;99.90;;;;;;4999084;28;20258;-67
2021/05/07 09:25:16;;;;;;;6.80;5.60;;;14.10;99.90;;;;;;4998153;28;20442;-66
2021/05/07 09:27:43;;;;;;;6.60;5.60;;;14.60;99.90;;;;;;5008045;28;20467;-66
2021/05/07 09:30:20;;;;;;;4.90;4.50;;;15.20;99.90;;;;;;4992990;28;20438;-66
2021/05/07 09:32:50;;;;;;;5.27;4.90;;;15.60;98.50;;;;;;4997105;28;20895;-65
2021/05/07 09:35:16;;;;;;;6.80;4.80;;;14.20;99.00;;;;;;4998623;28;20470;-64
2021/05/07 09:37:44;;;;;;;5.33;4.90;;;14.00;99.90;;;;;;4999008;28;20444;-66
2021/05/07 09:40:12;;;;;;;4.40;4.10;;;14.60;99.90;;;;;;5001083;28;20610;-65
2021/05/07 09:42:37;;;;;;;4.70;4.30;;;15.70;99.90;;;;;;4999320;28;20434;-66
2021/05/07 09:45:04;;;;;;;5.50;5.00;;;16.10;97.90;;;;;;5004436;28;20426;-66
2021/05/07 09:47:33;;;;;;;4.60;4.30;;;16.10;95.20;;;;;;5008349;28;20226;-66
2021/05/07 09:50:06;;;;;;;4.53;4.23;;;16.90;93.90;;;;;;5003942;28;20959;-66
2021/05/07 09:52:32;;;;;;;5.30;4.80;;;17.10;92.60;;;;;;5000881;28;20521;-66
2021/05/07 09:54:57;;;;;;;5.90;4.60;;;16.70;91.90;;;;;;4998600;28;20580;-66
2021/05/07 09:57:24;;;;;;;4.73;4.43;;;16.30;89.40;;;;;;5006559;28;20187;-66
2021/05/07 09:59:50;;;;;;;5.30;4.90;;;16.00;87.10;;;;;;5000995;28;20175;-66
2021/05/07 10:02:15;;;;;;;5.10;4.77;;;16.80;87.70;;;;;;5001913;28;20430;-67
2021/05/07 10:04:42;;;;;;;6.30;4.10;;;17.10;79.90;;;;;;5003744;28;21013;-66
2021/05/07 10:07:07;;;;;;;5.07;4.53;;;17.30;79.30;;;;;;4996225;28;20203;-66
2021/05/07 10:09:33;;;;;;;4.60;4.30;;;17.40;75.50;;;;;;5003999;28;20429;-66
2021/05/07 10:12:01;;;;;;;5.47;5.07;;;17.80;76.20;;;;;;5005358;28;20537;-65
2021/05/07 10:14:28;;;;;;;6.30;5.80;;;18.00;70.00;;;;;;4994177;28;20215;-66
2021/05/07 10:16:55;;;;;;;4.57;4.27;;;19.00;71.40;;;;;;4999977;28;20537;-66
2021/05/07 10:19:21;;;;;;;5.03;4.30;;;18.80;69.50;;;;;;5000484;28;20484;-65
2021/05/07 10:21:48;;;;;;;4.43;4.13;;;19.20;65.90;;;;;;4995185;28;20426;-66
2021/05/07 10:24:16;;;;;;;7.93;7.30;;;19.10;62.40;;;;;;4995180;28;20217;-67
2021/05/07 10:26:53;;;;;;;18.53;16.50;;;18.10;60.90;;;;;;4994910;28;20473;-65
2021/05/07 10:29:24;;;;;;;5.50;4.27;;;18.10;65.80;;;;;;4995305;28;20442;-65
2021/05/07 10:31:51;;;;;;;9.70;8.60;;;17.90;66.10;;;;;;5001018;28;20462;-65
2021/05/07 10:34:19;;;;;;;6.83;5.70;;;17.40;64.90;;;;;;5007134;28;20450;-66
2021/05/07 10:36:47;;;;;;;4.97;4.47;;;16.70;67.70;;;;;;4998733;28;20465;-66
2021/05/07 10:39:31;;;;;;;6.90;5.20;;;16.00;66.30;;;;;;5010002;28;20442;-66
2021/05/07 10:41:58;;;;;;;5.40;4.87;;;16.50;68.10;;;;;;5008301;28;20429;-66
2021/05/07 10:44:26;;;;;;;11.70;10.10;;;16.70;66.30;;;;;;5004673;28;20791;-66
2021/05/07 10:46:58;;;;;;;5.10;4.60;;;15.30;69.30;;;;;;5010039;28;20471;-65
2021/05/07 10:49:47;;;;;;;4.20;3.90;;;14.50;68.70;;;;;;5008108;28;20472;-64
2021/05/07 10:52:14;;;;;;;4.20;3.90;;;15.50;69.60;;;;;;5000883;28;20449;-65
2021/05/07 10:54:44;;;;;;;4.20;3.80;;;16.70;65.40;;;;;;5006385;28;20502;-65
2021/05/07 10:57:30;;;;;;;5.93;4.57;;;17.40;63.70;;;;;;5011341;28;20587;-66
2021/05/07 11:00:04;;;;;;;5.27;4.73;;;18.00;64.00;;;;;;4993324;28;20752;-66
2021/05/07 11:02:41;;;;;;;7.90;4.33;;;17.70;61.40;;;;;;5005742;28;20488;-67
2021/05/07 11:05:07;;;;;;;4.20;3.77;;;17.90;61.70;;;;;;4997957;28;20430;-67
2021/05/07 11:07:34;;;;;;;5.07;4.67;;;18.80;59.90;;;;;;5002796;28;20548;-66
2021/05/07 11:10:09;;;;;;;4.27;3.87;;;19.90;58.40;;;;;;4997813;28;20991;-67
2021/05/07 11:12:37;;;;;;;5.40;4.60;;;22.10;54.30;;;;;;4997687;28;20472;-67
2021/05/07 11:15:15;;;;;;;5.43;4.97;;;22.80;49.70;;;;;;5004273;28;20549;-66
2021/05/07 11:17:41;;;;;;;5.20;3.90;;;21.50;51.20;;;;;;4993210;28;20518;-67
2021/05/07 11:20:07;;;;;;;4.23;3.67;;;21.10;51.00;;;;;;5005035;28;20439;-67
2021/05/07 11:22:34;;;;;;;4.33;4.03;;;19.40;52.80;;;;;;5005557;28;20182;-66
2021/05/07 11:25:00;;;;;;;6.10;4.50;;;18.70;54.50;;;;;;5005385;28;20175;-66
2021/05/07 11:27:27;;;;;;;4.60;4.27;;;17.20;56.60;;;;;;5005936;28;20454;-66
2021/05/07 11:30:13;;;;;;;15.43;4.87;;;17.30;56.70;;;;;;4993070;28;20592;-66
2021/05/07 11:32:39;;;;;;;4.00;3.70;;;19.40;56.10;;;;;;4997502;28;20431;-66
2021/05/07 11:35:10;;;;;;;5.63;5.23;;;20.20;53.00;;;;;;4997108;28;20532;-66
2021/05/07 11:37:41;;;;;;;5.50;5.00;;;21.60;51.60;;;;;;5003724;28;20199;-65
2021/05/07 11:40:15;;;;;;;4.40;4.10;;;21.60;50.40;;;;;;5003485;28;20427;-66
2021/05/07 11:42:43;;;;;;;6.47;5.03;;;20.20;51.00;;;;;;5004864;28;20526;-66
2021/05/07 11:45:18;;;;;;;4.53;4.10;;;20.60;52.50;;;;;;5000697;28;20434;-66
2021/05/07 11:47:44;;;;;;;7.53;4.80;;;21.60;50.80;;;;;;4995946;28;20469;-67
2021/05/07 11:50:11;;;;;;;4.50;4.10;;;22.40;49.40;;;;;;5005541;28;20442;-66
2021/05/07 11:52:39;;;;;;;4.93;4.07;;;22.10;47.30;;;;;;5001582;28;20182;-66
2021/05/07 11:55:10;;;;;;;4.43;4.13;;;19.60;50.00;;;;;;5005713;28;20830;-65
2021/05/07 11:57:36;;;;;;;4.70;3.80;;;18.20;53.20;;;;;;5007988;28;20499;-66
2021/05/07 12:00:04;;;;;;;4.87;4.53;;;17.50;54.00;;;;;;5005947;28;20784;-66
2021/05/07 12:02:32;;;;;;;6.23;4.40;;;17.40;54.30;;;;;;5006124;28;20426;-67
2021/05/07 12:04:57;;;;;;;4.40;3.80;;;18.80;52.20;;;;;;5006559;28;20939;-67
2021/05/07 12:07:27;;;;;;;3.70;3.40;;;17.90;52.90;;;;;;5002615;28;20549;-65
2021/05/07 12:09:57;;;;;;;4.20;3.90;;;18.20;52.80;;;;;;4996914;28;20187;-67
2021/05/07 12:12:24;;;;;;;4.33;3.93;;;17.70;52.80;;;;;;5004238;28;20484;-66
2021/05/07 12:15:01;;;;;;;9.70;8.80;;;17.50;53.00;;;;;;5001980;28;20465;-67
2021/05/07 12:17:37;;;;;;;5.40;4.90;;;16.50;54.10;;;;;;5011375;28;20468;-68
2021/05/07 12:20:03;;;;;;;5.50;5.00;;;15.90;55.60;;;;;;4999330;28;21088;-67
2021/05/07 12:22:32;;;;;;;10.93;9.90;;;15.70;56.80;;;;;;5001239;28;20444;-67
2021/05/07 12:25:12;;;;;;;5.13;3.60;;;15.50;59.30;;;;;;5000624;28;20520;-68
2021/05/07 12:27:39;;;;;;;5.90;4.67;;;15.00;57.80;;;;;;5006972;28;20449;-66
2021/05/07 12:30:20;;;;;;;8.60;5.37;;;14.50;59.40;;;;;;5009834;28;20772;-66
2021/05/07 12:33:11;;;;;;;5.07;4.67;;;14.40;59.70;;;;;;5007850;28;20483;-65
2021/05/07 12:35:44;;;;;;;5.60;4.30;;;14.40;59.50;;;;;;5000535;28;20466;-65
2021/05/07 12:38:19;;;;;;;4.17;3.17;;;14.10;62.60;;;;;;5007108;28;20434;-65
2021/05/07 12:40:45;;;;;;;4.33;3.90;;;13.90;67.90;;;;;;5000559;28;20437;-65
2021/05/07 12:43:11;;;;;;;4.53;4.00;;;13.40;64.80;;;;;;4993748;28;20513;-65
2021/05/07 12:45:37;;;;;;;4.63;3.83;;;13.30;66.30;;;;;;5004192;28;20532;-66
2021/05/07 12:48:03;;;;;;;4.40;4.00;;;15.40;63.90;;;;;;4991656;28;21051;-66
2021/05/07 12:50:30;;;;;;;4.10;3.80;;;19.00;56.60;;;;;;4999805;28;20481;-66
2021/05/07 12:52:55;;;;;;;4.10;3.50;;;20.90;51.50;;;;;;4991134;28;20439;-67